Главная страница
METAR-TAF:

METAR-TAF

Аэропорты :

Женева, Швейцария

широта: 46-15N, долгота: 006-08E, высота над уровнем моря: 420 м

Текущие метеонаблюдения

Эта сводка был подготовлена 44 минут назад, в 05:50 UTC
Ветер 2 Узел переменных направлений
Температура 17°C
Влажность 77%
Давление 1019 hPa
Видимость 10 км и более
небольшая облачность на высоте 4000 фута

METAR: LSGG 170550Z VRB02KT 9999 FEW040 17/13 Q1019 NOSIG

Время: 08:34 (06:34 UTC)

Прогноз

Эта сводка был подготовлена 1 час и 9 минут назад, в 05:25 UTC
Прогноз действительный с 17-го 06 UTC до 18-го 12 UTC
Ветер 5 Узел от северо-восточный
Видимость 10 км и более
Нет облачности ниже 1500 м, и нет кучево-дождевой облачности

TAF: LSGG 170525Z 1706/1812 05005KT CAVOK TX25/1715Z TN16/1706Z TN13/1804Z

Метеонаблюдения и прогнозы для более 4000 аэропортов (сводки METAR и TAF).

Имеющиеся станции представлены на карте желтыми и красными точками.

Чтобы увидеть название станции, наведите на нее мышь.

Затем щелкните, чтобы увидеть метеонаблюдения и метеопрогнозы.

Управление картой: чтобы увеличить масштаб, щелкните зеленые кнопки с черным крестиком; чтобы уменьшить масштаб, щелкните зеленую кнопку с тире; для просмотра соседних карт щелкайте зеленые стрелки.


METAR-TAF: